createdAt,value
2019-03-20T00:00:40.758Z,76.90
2019-03-20T00:03:11.991Z,76.60
2019-03-20T00:05:42.230Z,76.50
2019-03-20T00:08:12.326Z,77.00
2019-03-20T00:10:44.081Z,77.30
2019-03-20T00:13:17.315Z,77.10
2019-03-20T00:15:47.333Z,76.90
2019-03-20T00:18:17.429Z,76.70
2019-03-20T00:20:49.113Z,77.30
2019-03-20T00:23:19.129Z,77.00
2019-03-20T00:25:50.846Z,77.70
2019-03-20T00:28:20.937Z,77.50
2019-03-20T00:30:53.401Z,78.20
2019-03-20T00:33:23.926Z,79.00
2019-03-20T00:35:55.198Z,79.00
2019-03-20T00:38:25.264Z,79.10
2019-03-20T00:40:55.422Z,79.20
2019-03-20T00:43:28.665Z,78.60
2019-03-20T00:46:01.260Z,78.50
2019-03-20T00:48:35.986Z,78.00
2019-03-20T00:51:07.371Z,77.60
2019-03-20T00:53:42.090Z,77.90
2019-03-20T00:56:13.662Z,78.00
2019-03-20T00:58:43.739Z,78.30
2019-03-20T01:01:13.836Z,78.30
2019-03-20T01:03:43.943Z,77.60
2019-03-20T01:06:17.444Z,77.70
2019-03-20T01:08:47.462Z,77.70
2019-03-20T01:11:17.578Z,77.50
2019-03-20T01:13:47.933Z,77.80
2019-03-20T01:16:17.982Z,78.00
2019-03-20T01:18:49.154Z,77.50
2019-03-20T01:21:21.725Z,77.00
2019-03-20T01:23:51.065Z,76.80
2019-03-20T01:26:22.818Z,77.90
2019-03-20T01:28:54.864Z,78.10
2019-03-20T01:31:26.595Z,78.40
2019-03-20T01:33:58.508Z,78.50
2019-03-20T01:36:28.568Z,78.40
2019-03-20T01:38:58.651Z,78.60
2019-03-20T01:41:38.231Z,78.90
2019-03-20T01:44:09.939Z,78.40
2019-03-20T01:46:42.986Z,77.90
2019-03-20T01:49:14.732Z,78.00
2019-03-20T01:51:44.914Z,78.40
2019-03-20T01:54:16.332Z,78.20
2019-03-20T01:56:46.940Z,78.60
2019-03-20T01:59:17.013Z,78.40
2019-03-20T02:01:47.101Z,78.00
2019-03-20T02:04:17.195Z,78.60
2019-03-20T02:06:48.928Z,78.30
2019-03-20T02:09:18.992Z,78.50
2019-03-20T02:11:51.774Z,78.60
2019-03-20T02:14:21.843Z,78.00
2019-03-20T02:16:51.953Z,77.70
2019-03-20T02:19:22.053Z,78.20
2019-03-20T02:21:52.056Z,78.20
2019-03-20T02:24:22.123Z,77.60
2019-03-20T02:26:52.157Z,77.80
2019-03-20T02:29:22.305Z,78.40
2019-03-20T02:31:52.311Z,80.00
2019-03-20T02:34:22.447Z,79.70
2019-03-20T02:36:52.475Z,79.40
2019-03-20T02:39:22.605Z,79.80
2019-03-20T02:41:52.704Z,79.60
2019-03-20T02:44:22.763Z,79.60
2019-03-20T02:46:52.864Z,79.30
2019-03-20T02:49:23.000Z,78.20
2019-03-20T02:51:53.062Z,77.70
2019-03-20T02:54:23.070Z,78.10
2019-03-20T02:56:55.440Z,79.00
2019-03-20T02:59:28.913Z,79.10
2019-03-20T03:02:04.089Z,78.20
2019-03-20T03:04:34.185Z,78.00
2019-03-20T03:07:07.276Z,77.50
2019-03-20T03:09:38.121Z,77.50
2019-03-20T03:12:08.245Z,77.60
2019-03-20T03:14:40.005Z,77.60
2019-03-20T03:17:10.091Z,78.10
2019-03-20T03:19:42.404Z,78.60
2019-03-20T03:22:15.277Z,79.10
2019-03-20T03:24:45.724Z,78.00
2019-03-20T03:27:18.024Z,77.20
2019-03-20T03:29:48.134Z,77.20
2019-03-20T03:32:18.206Z,77.00
2019-03-20T03:34:48.337Z,76.60
2019-03-20T03:37:21.084Z,76.30
2019-03-20T03:39:51.192Z,77.60
2019-03-20T03:42:21.293Z,78.00
2019-03-20T03:44:51.407Z,78.60
2019-03-20T03:47:21.482Z,78.50
2019-03-20T03:49:51.577Z,78.80
2019-03-20T03:52:22.669Z,78.60
2019-03-20T03:54:55.680Z,78.30
2019-03-20T03:57:27.314Z,78.20
2019-03-20T04:00:01.387Z,78.80
2019-03-20T04:02:32.911Z,79.20
2019-03-20T04:05:04.388Z,79.30
2019-03-20T04:07:37.367Z,79.40
2019-03-20T04:10:09.212Z,78.90
2019-03-20T04:12:39.336Z,78.60
2019-03-20T04:15:15.272Z,79.40
2019-03-20T04:17:45.449Z,79.90
2019-03-20T04:20:17.175Z,79.70
2019-03-20T04:22:47.334Z,79.80
2019-03-20T04:25:20.206Z,79.20
2019-03-20T04:27:50.337Z,78.60
2019-03-20T04:30:21.869Z,78.00
2019-03-20T04:32:57.975Z,77.90
2019-03-20T04:35:30.828Z,77.60
2019-03-20T04:38:02.145Z,77.80
2019-03-20T04:40:32.187Z,78.30
2019-03-20T04:43:02.337Z,77.80
2019-03-20T04:45:36.526Z,78.40
2019-03-20T04:48:09.199Z,77.90
2019-03-20T04:50:46.903Z,77.80
2019-03-20T04:53:16.911Z,77.40
2019-03-20T04:55:50.019Z,77.80
2019-03-20T04:58:22.951Z,77.00
2019-03-20T05:00:58.367Z,79.10
2019-03-20T05:03:26.566Z,78.90
2019-03-20T05:05:56.687Z,78.70
2019-03-20T05:08:26.712Z,78.40
2019-03-20T05:10:56.807Z,78.50
2019-03-20T05:13:26.883Z,78.80
2019-03-20T05:15:56.971Z,78.90
2019-03-20T05:18:31.660Z,78.80
2019-03-20T05:21:01.772Z,77.90
2019-03-20T05:23:31.856Z,77.70
2019-03-20T05:26:02.011Z,77.90
2019-03-20T05:28:33.183Z,77.60
2019-03-20T05:31:03.254Z,77.60
2019-03-20T05:33:37.337Z,77.40
2019-03-20T05:36:07.347Z,77.30
2019-03-20T05:38:38.943Z,77.40
2019-03-20T05:41:10.008Z,77.50
2019-03-20T05:43:46.628Z,77.60
2019-03-20T05:46:16.485Z,77.40
2019-03-20T05:48:48.280Z,77.60
2019-03-20T05:51:18.360Z,77.90
2019-03-20T05:53:49.633Z,77.80
2019-03-20T05:56:20.846Z,77.90
2019-03-20T05:58:52.549Z,77.80
2019-03-20T06:01:23.948Z,77.20
2019-03-20T06:03:59.614Z,76.70
2019-03-20T06:06:25.782Z,76.30
2019-03-20T06:08:55.896Z,76.50
2019-03-20T06:11:25.978Z,76.30
2019-03-20T06:13:56.064Z,75.80
2019-03-20T06:16:32.469Z,75.60
2019-03-20T06:19:04.598Z,76.20
2019-03-20T06:21:34.658Z,76.50
2019-03-20T06:24:04.774Z,76.40
2019-03-20T06:26:34.782Z,75.60
2019-03-20T06:29:08.016Z,75.20
2019-03-20T06:31:39.282Z,73.20
2019-03-20T06:34:11.028Z,72.70
2019-03-20T06:36:42.238Z,72.20
2019-03-20T06:39:12.318Z,70.60
2019-03-20T06:41:42.403Z,69.20
2019-03-20T06:44:12.475Z,67.50
2019-03-20T06:46:42.499Z,66.40
2019-03-20T06:49:13.859Z,65.50
2019-03-20T06:51:43.955Z,66.10
2019-03-20T06:54:18.337Z,65.10
2019-03-20T06:56:48.460Z,62.10
2019-03-20T07:00:12.699Z,60.00
2019-03-20T07:02:51.305Z,58.30
2019-03-20T07:06:03.106Z,51.90
2019-03-20T07:08:38.557Z,43.40
2019-03-20T07:11:11.787Z,36.40
2019-03-20T07:13:43.687Z,32.10
2019-03-20T07:16:16.805Z,31.10
2019-03-20T07:18:50.181Z,30.90
2019-03-20T07:21:23.287Z,31.10
2019-03-20T07:23:54.972Z,33.60
2019-03-20T07:26:25.142Z,33.30
2019-03-20T07:28:55.368Z,29.80
2019-03-20T07:31:25.397Z,26.70
2019-03-20T07:34:04.717Z,26.20
2019-03-20T07:36:34.587Z,23.80
2019-03-20T07:39:07.122Z,22.90
2019-03-20T07:41:38.774Z,21.70
2019-03-20T07:44:10.475Z,20.70
2019-03-20T07:46:42.261Z,20.70
2019-03-20T07:49:12.350Z,20.90
2019-03-20T07:51:43.689Z,20.50
2019-03-20T07:54:13.689Z,21.80
2019-03-20T07:56:45.479Z,22.70
2019-03-20T07:59:16.848Z,21.80
2019-03-20T08:01:46.906Z,19.80
2019-03-20T08:04:18.406Z,19.40
2019-03-20T08:07:03.699Z,18.80
2019-03-20T08:09:33.548Z,19.10
2019-03-20T08:12:06.412Z,18.90
2019-03-20T08:14:37.632Z,18.40
2019-03-20T08:17:07.708Z,18.60
2019-03-20T08:19:37.810Z,19.00
2019-03-20T08:22:07.969Z,17.80
2019-03-20T08:24:39.170Z,18.90
2019-03-20T08:27:09.326Z,20.60
2019-03-20T08:29:40.682Z,20.30
2019-03-20T08:32:10.788Z,20.10
2019-03-20T08:34:43.276Z,19.60
2019-03-20T08:37:16.005Z,20.20
2019-03-20T08:39:46.124Z,19.90
2019-03-20T08:42:16.943Z,18.20
2019-03-20T08:44:47.111Z,18.60
2019-03-20T08:47:17.187Z,19.20
2019-03-20T08:49:50.050Z,19.20
2019-03-20T08:52:21.724Z,19.20
2019-03-20T08:54:51.823Z,18.50
2019-03-20T08:57:23.580Z,18.00
2019-03-20T08:59:53.686Z,17.90
2019-03-20T09:02:26.959Z,17.50
2019-03-20T09:04:56.790Z,16.70
2019-03-20T09:07:28.582Z,15.70
2019-03-20T09:09:58.668Z,16.00
2019-03-20T09:12:30.151Z,14.80
2019-03-20T09:15:00.278Z,15.90
2019-03-20T09:17:33.414Z,13.80
2019-03-20T09:20:07.737Z,13.70
2019-03-20T09:22:37.898Z,15.20
2019-03-20T09:25:17.868Z,16.20
2019-03-20T09:27:48.003Z,14.30
2019-03-20T09:30:19.914Z,15.90
2019-03-20T09:32:54.273Z,14.90
2019-03-20T09:35:24.691Z,14.50
2019-03-20T09:37:59.793Z,15.20
2019-03-20T09:40:29.981Z,16.20
2019-03-20T09:43:00.085Z,15.70
2019-03-20T09:45:30.241Z,14.50
2019-03-20T09:48:00.233Z,17.20
2019-03-20T09:50:30.351Z,21.00
2019-03-20T09:53:00.436Z,24.70
2019-03-20T09:55:30.559Z,23.80
2019-03-20T09:58:10.925Z,22.90
2019-03-20T10:00:32.566Z,18.80
2019-03-20T10:03:02.670Z,18.30
2019-03-20T10:05:32.798Z,18.30
2019-03-20T10:08:02.869Z,19.60
2019-03-20T10:10:32.966Z,18.30
2019-03-20T10:13:05.893Z,16.30
2019-03-20T10:15:36.104Z,19.80
2019-03-20T10:18:06.261Z,24.50
2019-03-20T10:20:36.285Z,26.40
2019-03-20T10:23:06.571Z,22.40
2019-03-20T10:25:44.567Z,25.10
2019-03-20T10:28:08.602Z,24.80
2019-03-20T10:30:38.693Z,21.20
2019-03-20T10:33:08.772Z,23.00
2019-03-20T10:35:38.852Z,25.40
2019-03-20T10:38:08.939Z,26.10
2019-03-20T10:40:39.038Z,27.10
2019-03-20T10:43:09.224Z,25.50
2019-03-20T10:45:39.327Z,22.40
2019-03-20T10:48:09.525Z,20.30
2019-03-20T10:50:39.609Z,22.50
2019-03-20T10:53:09.697Z,23.80
2019-03-20T10:55:39.785Z,22.00
2019-03-20T10:58:09.934Z,19.90
2019-03-20T11:00:40.922Z,19.10
2019-03-20T11:03:11.103Z,17.40
2019-03-20T11:05:41.172Z,17.10
2019-03-20T11:08:13.018Z,16.80
2019-03-20T11:10:43.069Z,17.80
2019-03-20T11:13:13.152Z,19.10
2019-03-20T11:15:43.242Z,19.70
2019-03-20T11:18:13.415Z,20.30
2019-03-20T11:20:43.519Z,21.20
2019-03-20T11:23:13.534Z,23.70
2019-03-20T11:25:43.625Z,25.70
2019-03-20T11:28:13.713Z,25.90
2019-03-20T11:30:44.225Z,27.00
2019-03-20T11:33:14.319Z,27.40
2019-03-20T11:35:44.398Z,27.40
2019-03-20T11:38:16.197Z,27.30
2019-03-20T11:40:46.264Z,26.90
2019-03-20T11:43:16.439Z,27.50
2019-03-20T11:45:46.561Z,26.50
2019-03-20T11:48:16.665Z,26.60
2019-03-20T11:50:46.695Z,25.90
2019-03-20T11:53:16.798Z,26.20
2019-03-20T11:55:46.959Z,25.60
2019-03-20T11:58:17.040Z,28.30
2019-03-20T12:00:47.138Z,29.60
2019-03-20T12:03:17.209Z,28.30
2019-03-20T12:05:47.287Z,29.20
2019-03-20T12:08:17.389Z,30.20
2019-03-20T12:10:47.462Z,31.00
2019-03-20T12:13:17.591Z,30.20
2019-03-20T12:15:47.682Z,30.40
2019-03-20T12:18:17.771Z,30.00
2019-03-20T12:20:47.787Z,28.60
2019-03-20T12:23:17.858Z,29.60
2019-03-20T12:25:47.871Z,29.60
2019-03-20T12:28:17.855Z,29.40
2019-03-20T12:30:47.965Z,29.50
2019-03-20T12:33:18.007Z,31.00
2019-03-20T12:35:48.177Z,29.10
2019-03-20T12:38:18.170Z,28.20
2019-03-20T12:40:50.972Z,29.00
2019-03-20T12:43:21.007Z,29.10
2019-03-20T12:45:51.916Z,28.80
2019-03-20T12:48:22.004Z,28.90
2019-03-20T12:50:53.891Z,27.90
2019-03-20T12:53:28.590Z,29.20
2019-03-20T12:56:01.759Z,28.70
2019-03-20T12:58:35.944Z,30.60
2019-03-20T13:01:05.788Z,30.80
2019-03-20T13:03:36.977Z,27.70
2019-03-20T13:06:07.124Z,26.70
2019-03-20T13:08:37.312Z,27.10
2019-03-20T13:11:07.387Z,28.40
2019-03-20T13:13:37.481Z,28.20
2019-03-20T13:16:07.572Z,27.20
2019-03-20T13:18:37.670Z,27.40
2019-03-20T13:21:07.841Z,27.70
2019-03-20T13:23:37.968Z,27.30
2019-03-20T13:26:09.938Z,28.40
2019-03-20T13:28:39.997Z,28.10
2019-03-20T13:31:13.525Z,28.50
2019-03-20T13:33:43.634Z,28.00
2019-03-20T13:36:15.548Z,28.00
2019-03-20T13:38:48.527Z,28.50
2019-03-20T13:41:18.743Z,28.70
2019-03-20T13:43:48.918Z,29.20
2019-03-20T13:46:21.795Z,28.40
2019-03-20T13:48:51.851Z,28.30
2019-03-20T13:51:28.601Z,28.70
2019-03-20T13:53:59.386Z,30.80
2019-03-20T13:56:29.560Z,31.70
2019-03-20T13:58:59.668Z,32.20
2019-03-20T14:01:30.987Z,31.70
2019-03-20T14:04:04.087Z,32.30
2019-03-20T14:06:34.117Z,32.20
2019-03-20T14:09:06.262Z,32.40
2019-03-20T14:11:36.386Z,31.50
2019-03-20T14:14:06.431Z,32.00
2019-03-20T14:16:36.505Z,31.80
2019-03-20T14:19:06.497Z,32.30
2019-03-20T14:21:36.581Z,32.40
2019-03-20T14:24:06.733Z,31.70
2019-03-20T14:26:36.829Z,30.40
2019-03-20T14:29:06.917Z,30.60
2019-03-20T14:31:38.705Z,30.30
2019-03-20T14:34:10.549Z,30.30
2019-03-20T14:36:41.700Z,30.00
2019-03-20T14:39:16.473Z,30.80
2019-03-20T14:41:46.525Z,30.50
2019-03-20T14:44:19.895Z,30.30
2019-03-20T14:46:50.055Z,31.00
2019-03-20T14:49:20.931Z,30.70
2019-03-20T14:51:50.947Z,31.00
2019-03-20T14:54:24.046Z,32.00
2019-03-20T14:56:56.115Z,31.60
2019-03-20T14:59:28.620Z,30.50
2019-03-20T15:02:01.646Z,30.40
2019-03-20T15:04:32.384Z,30.90
2019-03-20T15:07:02.467Z,31.50
2019-03-20T15:09:32.554Z,31.20
2019-03-20T15:12:06.666Z,31.30
2019-03-20T15:14:36.750Z,30.30
2019-03-20T15:17:13.578Z,31.40
2019-03-20T15:19:38.936Z,32.80
2019-03-20T15:22:09.016Z,33.00
2019-03-20T15:24:39.032Z,32.80
2019-03-20T15:27:09.105Z,33.10
2019-03-20T15:29:39.249Z,33.40
2019-03-20T15:32:09.324Z,33.20
2019-03-20T15:34:39.434Z,33.30
2019-03-20T15:37:09.524Z,33.80
2019-03-20T15:39:39.672Z,34.10
2019-03-20T15:42:09.743Z,34.00
2019-03-20T15:44:39.860Z,33.90
2019-03-20T15:47:11.810Z,33.60
2019-03-20T15:49:41.649Z,34.30
2019-03-20T15:52:11.720Z,34.10
2019-03-20T15:54:41.753Z,33.80
2019-03-20T15:57:11.841Z,34.60
2019-03-20T15:59:42.270Z,34.70
2019-03-20T16:02:12.381Z,34.60
2019-03-20T16:04:42.392Z,35.20
2019-03-20T16:07:12.528Z,34.80
2019-03-20T16:09:42.550Z,34.60
2019-03-20T16:12:12.566Z,35.00
2019-03-20T16:14:42.625Z,34.70
2019-03-20T16:17:12.729Z,34.90
2019-03-20T16:19:42.881Z,34.80
2019-03-20T16:22:13.075Z,35.10
2019-03-20T16:24:43.177Z,35.20
2019-03-20T16:27:13.266Z,35.20
2019-03-20T16:29:43.454Z,35.10
2019-03-20T16:32:13.509Z,35.30
2019-03-20T16:34:43.515Z,36.00
2019-03-20T16:37:13.505Z,36.30
2019-03-20T16:39:43.583Z,36.70
2019-03-20T16:42:13.656Z,36.80
2019-03-20T16:44:43.755Z,36.30
2019-03-20T16:47:16.753Z,36.30
2019-03-20T16:49:46.936Z,36.40
2019-03-20T16:52:16.957Z,37.00
2019-03-20T16:54:47.044Z,36.80
2019-03-20T16:57:17.253Z,37.20
2019-03-20T16:59:47.401Z,37.80
2019-03-20T17:02:19.935Z,38.20
2019-03-20T17:04:50.187Z,38.70
2019-03-20T17:07:20.274Z,38.70
2019-03-20T17:09:55.126Z,39.10
2019-03-20T17:12:26.100Z,39.10
2019-03-20T17:14:56.255Z,39.10
2019-03-20T17:17:26.337Z,39.20
2019-03-20T17:19:58.328Z,39.50
2019-03-20T17:22:29.418Z,40.60
2019-03-20T17:25:01.281Z,40.00
2019-03-20T17:27:34.126Z,40.50
2019-03-20T17:30:04.611Z,40.30
2019-03-20T17:32:39.491Z,41.10
2019-03-20T17:35:13.241Z,42.00
2019-03-20T17:37:43.366Z,42.90
2019-03-20T17:40:19.711Z,47.60
2019-03-20T17:42:50.780Z,50.70
2019-03-20T17:45:22.244Z,52.80
2019-03-20T17:47:52.380Z,55.30
2019-03-20T17:50:24.023Z,56.40
2019-03-20T17:52:54.138Z,57.10
2019-03-20T17:55:24.206Z,57.70
2019-03-20T17:57:54.341Z,58.30
2019-03-20T18:00:45.337Z,59.00
2019-03-20T18:03:15.559Z,57.40
2019-03-20T18:05:45.716Z,57.90
2019-03-20T18:08:17.477Z,56.50
2019-03-20T18:10:47.580Z,56.20
2019-03-20T18:13:17.730Z,56.10
2019-03-20T18:15:47.808Z,56.20
2019-03-20T18:18:17.945Z,56.10
2019-03-20T18:20:48.071Z,57.90
2019-03-20T18:23:18.244Z,57.80
2019-03-20T18:25:48.432Z,58.50
2019-03-20T18:28:21.689Z,58.80
2019-03-20T18:30:51.545Z,60.00
2019-03-20T18:33:26.160Z,58.60
2019-03-20T18:35:55.556Z,58.80
2019-03-20T18:38:27.536Z,59.30
2019-03-20T18:40:59.019Z,59.50
2019-03-20T18:43:29.280Z,60.10
2019-03-20T18:46:02.211Z,60.00
2019-03-20T18:48:36.443Z,59.80
2019-03-20T18:51:13.740Z,60.40
2019-03-20T18:53:43.856Z,60.00
2019-03-20T18:56:15.666Z,60.80
2019-03-20T18:58:45.876Z,60.80
2019-03-20T19:01:15.979Z,61.40
2019-03-20T19:03:46.878Z,61.40
2019-03-20T19:06:24.584Z,61.90
2019-03-20T19:08:54.777Z,62.10
2019-03-20T19:11:25.161Z,62.10
2019-03-20T19:13:55.342Z,62.80
2019-03-20T19:16:25.454Z,63.10
2019-03-20T19:18:55.664Z,62.80
2019-03-20T19:21:25.821Z,63.50
2019-03-20T19:23:55.973Z,63.00
2019-03-20T19:26:26.133Z,62.70
2019-03-20T19:28:56.335Z,62.70
2019-03-20T19:31:26.531Z,63.40
2019-03-20T19:33:56.709Z,63.60
2019-03-20T19:36:26.843Z,64.10
2019-03-20T19:38:57.085Z,63.00
2019-03-20T19:41:27.264Z,63.30
2019-03-20T19:43:57.346Z,64.10
2019-03-20T19:46:27.469Z,63.70
2019-03-20T19:48:57.646Z,63.90
2019-03-20T19:51:27.750Z,64.30
2019-03-20T19:53:57.851Z,64.40
2019-03-20T19:56:28.055Z,65.40
2019-03-20T19:58:59.844Z,67.10
2019-03-20T20:01:29.990Z,65.60
2019-03-20T20:04:00.195Z,64.60
2019-03-20T20:06:30.352Z,64.90
2019-03-20T20:09:00.551Z,64.30
2019-03-20T20:11:30.729Z,64.60
2019-03-20T20:14:00.986Z,64.90
2019-03-20T20:16:31.103Z,65.00
2019-03-20T20:19:01.293Z,65.50
2019-03-20T20:21:31.429Z,66.00
2019-03-20T20:24:01.550Z,66.30
2019-03-20T20:26:31.581Z,67.00
2019-03-20T20:29:01.709Z,66.60
2019-03-20T20:31:31.897Z,66.40
2019-03-20T20:34:02.116Z,66.60
2019-03-20T20:36:32.288Z,66.90
2019-03-20T20:39:02.411Z,66.50
2019-03-20T20:41:32.566Z,65.80
2019-03-20T20:44:02.717Z,66.10
2019-03-20T20:46:34.032Z,66.50
2019-03-20T20:49:07.397Z,66.80
2019-03-20T20:51:43.152Z,67.90
2019-03-20T20:54:12.513Z,67.30
2019-03-20T20:56:42.643Z,67.40
2019-03-20T20:59:14.431Z,66.80
2019-03-20T21:01:44.532Z,67.30
2019-03-20T21:04:15.900Z,68.10
2019-03-20T21:06:47.135Z,67.40
2019-03-20T21:09:19.986Z,66.80
2019-03-20T21:11:50.094Z,67.20
2019-03-20T21:14:24.403Z,67.70
2019-03-20T21:16:56.298Z,67.50
2019-03-20T21:19:41.263Z,68.00
2019-03-20T21:23:00.440Z,69.40
2019-03-20T21:25:31.092Z,69.10
2019-03-20T21:29:01.180Z,69.60
2019-03-20T21:31:41.479Z,69.70
2019-03-20T21:34:49.841Z,69.90
2019-03-20T21:37:50.575Z,70.40
2019-03-20T21:40:24.651Z,70.40
2019-03-20T21:43:50.841Z,71.20
2019-03-20T21:47:05.314Z,72.10
2019-03-20T21:49:37.737Z,71.80
2019-03-20T21:52:08.361Z,71.30
2019-03-20T21:55:19.840Z,71.00
2019-03-20T21:58:14.341Z,70.10
2019-03-20T22:01:34.940Z,70.30
2019-03-20T22:04:05.657Z,69.70
2019-03-20T22:07:13.374Z,70.50
2019-03-20T22:10:36.133Z,71.60
2019-03-20T22:13:39.650Z,72.60
2019-03-20T22:16:57.836Z,70.80
2019-03-20T22:19:59.454Z,70.80
2019-03-20T22:22:53.480Z,71.10
2019-03-20T22:26:06.937Z,70.90
2019-03-20T22:29:06.208Z,71.00
2019-03-20T22:31:38.733Z,71.30
2019-03-20T22:34:36.339Z,71.30
2019-03-20T22:37:07.997Z,71.30
2019-03-20T22:40:34.834Z,72.60
2019-03-20T22:43:30.270Z,73.10
2019-03-20T22:46:25.483Z,72.40
2019-03-20T22:49:56.391Z,73.00
2019-03-20T22:53:24.908Z,73.20
2019-03-20T22:56:20.271Z,73.40
2019-03-20T22:58:50.823Z,72.70
2019-03-20T23:02:03.044Z,72.90
2019-03-20T23:04:49.119Z,72.90
2019-03-20T23:07:27.279Z,72.30
2019-03-20T23:09:53.387Z,72.50
2019-03-20T23:12:28.936Z,72.70
2019-03-20T23:15:08.853Z,72.50
2019-03-20T23:17:35.014Z,72.70
2019-03-20T23:20:08.661Z,72.50
2019-03-20T23:22:40.368Z,73.40
2019-03-20T23:25:16.439Z,73.20
2019-03-20T23:27:47.113Z,73.40
2019-03-20T23:30:24.358Z,73.00
2019-03-20T23:32:55.069Z,72.50
2019-03-20T23:35:26.948Z,72.40
2019-03-20T23:37:57.520Z,72.90
2019-03-20T23:40:28.168Z,73.70
2019-03-20T23:43:01.564Z,74.10
2019-03-20T23:45:33.180Z,73.70
2019-03-20T23:48:10.792Z,73.40
2019-03-20T23:50:43.317Z,73.70
2019-03-20T23:53:13.962Z,73.80
2019-03-20T23:55:44.636Z,73.80
2019-03-20T23:58:16.990Z,73.80
